Time;durP1;ratioP1;P1;durP2;ratioP2;P2;SDS_P1;SDS_P2;PMS_P1;PMS_P2;Temp;Humidity;BMP_temperature;BMP_pressure;BME280_temperature;BME280_humidity;BME280_pressure;Samples;Min_cycle;Max_cycle;Signal;HPM_P1;HPM_P2
2023/03/15 00:01:28;;;;;;;4.80;3.00;;;;;;;0.89;65.53;95609.25;5095273;28;20051;-65
2023/03/15 00:03:55;;;;;;;8.65;2.92;;;;;;;0.84;65.82;95599.03;5095948;28;20078;-67
2023/03/15 00:06:23;;;;;;;8.48;2.63;;;;;;;0.81;65.65;95595.66;5095798;28;20117;-66
2023/03/15 00:08:50;;;;;;;4.35;2.50;;;;;;;0.65;65.92;95595.84;5095688;28;20656;-60
2023/03/15 00:11:18;;;;;;;4.28;2.35;;;;;;;0.61;66.42;95582.16;5095673;28;20080;-64
2023/03/15 00:13:46;;;;;;;4.57;2.10;;;;;;;0.58;66.15;95584.81;5095550;28;20079;-63
2023/03/15 00:16:17;;;;;;;5.35;2.28;;;;;;;0.50;66.19;95576.34;5095607;28;20127;-60
2023/03/15 00:18:45;;;;;;;6.25;2.72;;;;;;;0.46;66.89;95569.53;5095546;28;20052;-64
2023/03/15 00:21:13;;;;;;;4.90;2.60;;;;;;;0.52;66.68;95572.03;5095449;28;20040;-63
2023/03/15 00:23:42;;;;;;;5.38;2.70;;;;;;;0.52;66.47;95569.44;5095446;28;20044;-62
2023/03/15 00:26:09;;;;;;;6.32;2.88;;;;;;;0.45;66.98;95560.94;5095398;28;20450;-66
2023/03/15 00:28:36;;;;;;;5.38;2.97;;;;;;;0.36;66.91;95561.09;5095351;28;20055;-61
2023/03/15 00:31:08;;;;;;;9.60;2.38;;;;;;;0.42;67.52;95560.16;5095255;28;20048;-64
2023/03/15 00:33:35;;;;;;;6.45;2.70;;;;;;;0.44;67.28;95553.25;5095340;28;20040;-63
2023/03/15 00:36:05;;;;;;;10.25;3.00;;;;;;;0.42;67.84;95544.72;5095252;28;20040;-64
2023/03/15 00:38:33;;;;;;;13.00;2.40;;;;;;;0.41;67.89;95537.84;5095233;28;20128;-64
2023/03/15 00:41:05;;;;;;;5.25;2.35;;;;;;;0.37;67.65;95532.75;5095243;28;20127;-65
2023/03/15 00:43:32;;;;;;;6.05;2.63;;;;;;;0.32;67.67;95524.25;5095111;28;20048;-62
2023/03/15 00:46:00;;;;;;;4.55;2.58;;;;;;;0.33;67.83;95528.50;5095189;28;20131;-65
2023/03/15 00:48:27;;;;;;;5.78;2.70;;;;;;;0.34;67.86;95521.66;5095013;28;20106;-62
2023/03/15 00:51:02;;;;;;;5.47;2.95;;;;;;;0.36;67.67;95519.94;5094638;28;20105;-64
2023/03/15 00:53:30;;;;;;;5.65;2.67;;;;;;;0.44;67.67;95518.06;5094890;28;20472;-64
2023/03/15 00:55:57;;;;;;;6.85;2.55;;;;;;;0.47;67.48;95504.31;5094860;28;20044;-66
2023/03/15 00:58:26;;;;;;;4.28;2.50;;;;;;;0.49;67.87;95500.00;5094745;28;20543;-67
2023/03/15 01:00:53;;;;;;;7.57;2.80;;;;;;;0.49;68.26;95494.84;5094668;28;20044;-66
2023/03/15 01:03:20;;;;;;;22.48;17.60;;;;;;;0.53;68.09;95498.22;5094522;28;20043;-63
2023/03/15 01:05:47;;;;;;;8.70;3.92;;;;;;;0.47;68.00;95496.59;5094687;28;20131;-62
2023/03/15 01:08:15;;;;;;;7.95;4.10;;;;;;;0.48;68.33;95488.84;5094608;28;20082;-67
2023/03/15 01:10:42;;;;;;;17.33;4.38;;;;;;;0.50;68.44;95491.41;5094563;28;20553;-66
2023/03/15 01:13:09;;;;;;;7.40;3.47;;;;;;;0.54;68.11;95492.22;5093517;28;20130;-64
2023/03/15 01:15:38;;;;;;;6.30;3.47;;;;;;;0.55;68.23;95493.91;5094542;28;20170;-60
2023/03/15 01:18:05;;;;;;;5.00;2.97;;;;;;;0.47;68.47;95494.00;5094541;28;20114;-61
2023/03/15 01:20:32;;;;;;;4.75;2.25;;;;;;;0.43;68.28;95482.06;5094440;28;20131;-65
2023/03/15 01:22:59;;;;;;;3.88;2.67;;;;;;;0.37;68.57;95485.59;5094198;28;20561;-64
2023/03/15 01:25:26;;;;;;;3.67;2.15;;;;;;;0.39;68.54;95481.25;5094221;28;20138;-64
2023/03/15 01:27:54;;;;;;;4.35;2.17;;;;;;;0.40;68.53;95469.25;5094195;28;20534;-66
2023/03/15 01:30:21;;;;;;;5.32;3.22;;;;;;;0.33;68.55;95459.03;5094122;28;20134;-61
2023/03/15 01:32:49;;;;;;;5.45;3.20;;;;;;;0.37;68.95;95458.13;5094132;28;20052;-64
2023/03/15 01:35:16;;;;;;;6.22;3.28;;;;;;;0.33;69.54;95455.63;5094031;28;20044;-64
2023/03/15 01:37:43;;;;;;;7.63;3.22;;;;;;;0.31;69.31;95452.22;5094110;28;20127;-63
2023/03/15 01:40:13;;;;;;;9.07;2.95;;;;;;;0.29;70.10;95449.69;5094109;28;20127;-63
2023/03/15 01:43:05;;;;;;;4.93;1.98;;;;;;;0.29;69.96;95441.97;5093783;28;20139;-67
2023/03/15 01:46:02;;;;;;;4.47;3.00;;;;;;;0.22;70.94;95437.78;5093828;28;20048;-65
2023/03/15 01:48:36;;;;;;;6.82;3.05;;;;;;;0.25;71.33;95441.16;5093777;28;20044;-67
2023/03/15 01:51:08;;;;;;;3.85;2.90;;;;;;;0.25;71.08;95436.00;5093647;28;20048;-61
2023/03/15 01:53:36;;;;;;;9.63;2.85;;;;;;;0.29;70.79;95441.09;5093773;28;20048;-62
2023/03/15 01:56:05;;;;;;;11.75;3.33;;;;;;;0.30;71.06;95445.41;5093814;28;20086;-65
2023/03/15 01:58:34;;;;;;;5.22;3.08;;;;;;;0.39;71.13;95440.09;5093602;28;20063;-61
2023/03/15 02:01:02;;;;;;;4.93;3.35;;;;;;;0.46;70.88;95434.00;5093524;28;20485;-66
2023/03/15 02:03:35;;;;;;;4.55;3.08;;;;;;;0.54;70.84;95436.41;5093503;28;20452;-65
2023/03/15 02:06:07;;;;;;;9.10;3.38;;;;;;;0.53;70.70;95439.88;5093612;28;20044;-65
2023/03/15 02:08:39;;;;;;;6.07;3.15;;;;;;;0.52;70.83;95443.34;5093636;28;20082;-67
2023/03/15 02:11:06;;;;;;;8.65;3.63;;;;;;;0.54;70.96;95440.75;5093584;28;20132;-67
2023/03/15 02:13:35;;;;;;;8.73;3.47;;;;;;;0.55;71.15;95437.28;5093479;28;20101;-64
2023/03/15 02:16:05;;;;;;;8.77;2.50;;;;;;;0.64;70.93;95444.88;5093517;28;20052;-67
2023/03/15 02:18:35;;;;;;;4.55;2.90;;;;;;;0.68;70.63;95449.09;5093488;28;20040;-65
2023/03/15 02:21:13;;;;;;;7.47;3.65;;;;;;;0.72;70.22;95448.16;5093337;28;20135;-64
2023/03/15 02:23:41;;;;;;;15.18;3.95;;;;;;;0.71;70.68;95455.91;5093415;28;20044;-64
2023/03/15 02:26:17;;;;;;;8.30;3.15;;;;;;;0.71;70.45;95449.03;5093140;28;20482;-66
2023/03/15 02:28:47;;;;;;;6.07;3.05;;;;;;;0.67;70.65;95451.69;5093255;28;20513;-64
2023/03/15 02:31:15;;;;;;;9.38;3.75;;;;;;;0.62;70.67;95442.31;5093203;28;20497;-62
2023/03/15 02:33:46;;;;;;;7.28;3.10;;;;;;;0.60;70.89;95438.91;5093207;28;20086;-65
2023/03/15 02:36:19;;;;;;;8.23;2.88;;;;;;;0.66;71.20;95435.38;5093278;28;20048;-66
2023/03/15 02:38:47;;;;;;;9.38;3.05;;;;;;;0.67;71.42;95438.81;5093266;28;20070;-68
2023/03/15 02:41:18;;;;;;;7.22;3.13;;;;;;;0.60;71.29;95443.22;5093261;28;20044;-65
2023/03/15 02:43:52;;;;;;;6.47;3.13;;;;;;;0.62;71.34;95438.88;5093054;28;20052;-65
2023/03/15 02:46:20;;;;;;;9.60;3.60;;;;;;;0.67;71.43;95446.53;5093117;28;20143;-65
2023/03/15 02:48:48;;;;;;;8.40;3.58;;;;;;;0.68;71.20;95450.78;5093182;28;20058;-66
2023/03/15 02:51:20;;;;;;;8.18;4.53;;;;;;;0.70;71.15;95460.22;5093034;28;20040;-62
2023/03/15 02:53:48;;;;;;;6.50;3.38;;;;;;;0.75;70.86;95454.97;5093029;28;20106;-67
2023/03/15 02:56:16;;;;;;;8.55;3.05;;;;;;;0.75;71.34;95442.09;5093207;28;20094;-63
2023/03/15 02:58:45;;;;;;;7.70;2.72;;;;;;;0.79;71.31;95438.63;5093101;28;20439;-65
2023/03/15 03:01:14;;;;;;;9.95;3.47;;;;;;;0.79;71.24;95424.88;5092849;28;20059;-65
2023/03/15 03:03:41;;;;;;;10.55;3.55;;;;;;;0.80;71.09;95424.00;5092873;28;20048;-66
2023/03/15 03:06:12;;;;;;;8.43;3.45;;;;;;;0.79;71.22;95423.16;5092882;28;20048;-66
2023/03/15 03:08:39;;;;;;;6.38;3.05;;;;;;;0.80;71.63;95421.41;5092991;28;20051;-66
2023/03/15 03:11:07;;;;;;;5.35;3.30;;;;;;;0.84;71.62;95423.09;5092936;28;20406;-66
2023/03/15 03:13:34;;;;;;;7.97;3.63;;;;;;;0.86;71.38;95429.03;5092962;28;20044;-66
2023/03/15 03:16:01;;;;;;;9.00;3.13;;;;;;;0.84;71.74;95416.19;5092842;28;20147;-64
2023/03/15 03:18:30;;;;;;;8.30;3.42;;;;;;;0.86;71.50;95416.16;5092851;28;20135;-65
2023/03/15 03:20:59;;;;;;;5.53;3.33;;;;;;;0.88;71.42;95417.00;5092767;28;20056;-65
2023/03/15 03:23:27;;;;;;;10.02;3.53;;;;;;;0.91;71.37;95409.22;5092587;28;20139;-65
2023/03/15 03:25:55;;;;;;;9.27;3.38;;;;;;;0.86;71.76;95411.03;5092651;28;20052;-67
2023/03/15 03:28:23;;;;;;;8.15;4.47;;;;;;;0.91;72.02;95414.38;5092738;28;20452;-63
2023/03/15 03:30:50;;;;;;;17.30;11.20;;;;;;;0.92;72.10;95412.63;5092800;28;20048;-68
2023/03/15 03:33:17;;;;;;;14.88;7.03;;;;;;;0.95;72.01;95410.88;5092848;28;20046;-66
2023/03/15 03:35:46;;;;;;;12.32;4.30;;;;;;;0.93;72.73;95414.34;5092610;28;20044;-68
2023/03/15 03:38:13;;;;;;;12.73;3.95;;;;;;;0.94;72.82;95405.75;5095962;28;20048;-62
2023/03/15 03:40:41;;;;;;;11.05;3.42;;;;;;;0.90;73.16;95412.66;5096348;28;20553;-64
2023/03/15 03:43:10;;;;;;;4.43;3.00;;;;;;;0.85;72.52;95415.31;5096255;28;20048;-64
2023/03/15 03:45:37;;;;;;;10.88;3.63;;;;;;;0.91;72.89;95416.94;5096223;28;20544;-66
2023/03/15 03:48:04;;;;;;;7.22;3.30;;;;;;;0.96;72.68;95411.72;5096177;28;20048;-64
2023/03/15 03:50:32;;;;;;;10.30;3.80;;;;;;;1.01;72.64;95412.47;5095925;28;20044;-62
2023/03/15 03:53:00;;;;;;;11.48;4.43;;;;;;;0.98;72.71;95405.66;5096137;28;20052;-66
2023/03/15 03:55:27;;;;;;;10.68;6.28;;;;;;;0.99;73.05;95409.06;5096044;28;20040;-62
2023/03/15 03:57:54;;;;;;;10.98;5.30;;;;;;;0.95;73.33;95410.88;5096098;28;20047;-65
2023/03/15 04:00:22;;;;;;;6.28;3.72;;;;;;;0.99;73.39;95399.63;5096067;28;20047;-66
2023/03/15 04:02:52;;;;;;;7.93;3.83;;;;;;;0.98;73.24;95404.78;5095838;28;20120;-62
2023/03/15 04:05:20;;;;;;;9.88;4.20;;;;;;;0.93;73.84;95411.78;5095803;28;20048;-66
2023/03/15 04:07:47;;;;;;;11.13;4.28;;;;;;;0.96;74.65;95409.16;5095836;28;20044;-63
2023/03/15 04:10:17;;;;;;;9.05;3.83;;;;;;;1.02;74.75;95403.03;5095713;28;20490;-62
2023/03/15 04:12:44;;;;;;;9.10;3.70;;;;;;;1.04;74.56;95406.41;5095823;28;20055;-66
2023/03/15 04:15:12;;;;;;;7.75;3.50;;;;;;;1.06;74.68;95409.81;5095712;28;20785;-62
2023/03/15 04:17:39;;;;;;;8.30;3.65;;;;;;;1.07;75.05;95406.34;5095605;28;20565;-66
2023/03/15 04:20:10;;;;;;;8.05;3.65;;;;;;;1.06;74.75;95404.66;5095593;28;20056;-63
2023/03/15 04:22:37;;;;;;;11.25;3.97;;;;;;;1.04;75.17;95399.53;5095528;28;20044;-64
2023/03/15 04:25:08;;;;;;;16.23;4.00;;;;;;;1.10;74.73;95401.16;5095454;28;20044;-64
2023/03/15 04:27:36;;;;;;;9.73;4.00;;;;;;;1.12;74.71;95401.97;5095477;28;20547;-64
2023/03/15 04:30:04;;;;;;;9.90;3.60;;;;;;;1.18;74.70;95398.44;5095329;28;20379;-67
2023/03/15 04:32:31;;;;;;;8.18;3.20;;;;;;;1.21;74.45;95395.78;5095325;28;20047;-67
2023/03/15 04:34:58;;;;;;;10.02;3.60;;;;;;;1.19;74.25;95397.53;5095416;28;20135;-64
2023/03/15 04:37:25;;;;;;;5.88;3.50;;;;;;;1.28;74.28;95399.09;5095270;28;20494;-66
2023/03/15 04:39:52;;;;;;;9.43;3.80;;;;;;;1.28;74.09;95401.66;5095184;28;20048;-67
2023/03/15 04:42:19;;;;;;;7.10;3.75;;;;;;;1.28;74.33;95397.38;5095110;28;20067;-67
2023/03/15 04:44:48;;;;;;;7.68;3.85;;;;;;;1.25;74.30;95394.84;5095074;28;20083;-64
2023/03/15 04:47:15;;;;;;;9.90;3.63;;;;;;;1.27;74.55;95393.09;5094928;28;20054;-65
2023/03/15 04:49:43;;;;;;;7.05;3.47;;;;;;;1.31;74.52;95393.88;5094710;28;20051;-62
2023/03/15 04:52:10;;;;;;;5.90;3.95;;;;;;;1.35;74.77;95393.78;5094974;28;20409;-64
2023/03/15 04:54:38;;;;;;;8.50;3.70;;;;;;;1.44;74.63;95385.03;5094991;28;20080;-66
2023/03/15 04:57:06;;;;;;;10.63;4.28;;;;;;;1.47;74.65;95387.53;5094845;28;20048;-64
2023/03/15 04:59:33;;;;;;;14.27;4.30;;;;;;;1.53;74.83;95385.72;5094820;28;20102;-66
2023/03/15 05:02:02;;;;;;;10.00;4.35;;;;;;;1.64;74.97;95386.34;5094898;28;20489;-64
2023/03/15 05:04:29;;;;;;;8.55;3.80;;;;;;;1.60;74.85;95377.81;5094634;28;20066;-65
2023/03/15 05:06:57;;;;;;;6.30;3.83;;;;;;;1.65;75.12;95377.72;5094848;28;20047;-65
2023/03/15 05:09:27;;;;;;;5.78;3.63;;;;;;;1.69;74.89;95378.50;5094632;28;20044;-63
2023/03/15 05:11:54;;;;;;;18.70;3.97;;;;;;;1.73;74.53;95388.72;5094541;28;20058;-66
2023/03/15 05:14:21;;;;;;;8.68;3.80;;;;;;;1.79;74.49;95379.16;5094536;28;20417;-66
2023/03/15 05:16:54;;;;;;;3.85;2.63;;;;;;;1.84;74.29;95374.75;5094564;28;20052;-64
2023/03/15 05:19:23;;;;;;;7.35;5.75;;;;;;;1.86;73.93;95380.72;5094411;28;20136;-62
2023/03/15 05:21:51;;;;;;;5.20;2.83;;;;;;;1.91;73.49;95378.88;5094306;28;20051;-64
2023/03/15 05:24:18;;;;;;;9.13;3.50;;;;;;;1.98;73.28;95361.53;5094327;28;20047;-65
2023/03/15 05:26:46;;;;;;;5.80;3.80;;;;;;;2.04;73.18;95356.22;5094424;28;20083;-63
2023/03/15 05:29:13;;;;;;;12.60;3.97;;;;;;;2.07;72.96;95366.47;5094250;28;20146;-65
2023/03/15 05:31:40;;;;;;;8.32;3.92;;;;;;;2.10;72.74;95369.00;5094246;28;20040;-65
2023/03/15 05:34:08;;;;;;;6.70;4.07;;;;;;;2.16;72.53;95362.00;5094062;28;20512;-63
2023/03/15 05:36:37;;;;;;;7.70;3.78;;;;;;;2.23;72.78;95356.66;5094031;28;20101;-67
2023/03/15 05:39:04;;;;;;;9.77;4.00;;;;;;;2.35;73.28;95355.50;5094161;28;20070;-64
2023/03/15 05:41:32;;;;;;;6.72;3.88;;;;;;;2.44;73.02;95353.59;5094042;28;20047;-66
2023/03/15 05:43:59;;;;;;;6.50;3.35;;;;;;;2.55;73.03;95350.72;5093728;28;20105;-64
2023/03/15 05:46:27;;;;;;;7.70;3.60;;;;;;;2.72;72.54;95339.97;5093882;28;20135;-64
2023/03/15 05:48:54;;;;;;;8.93;4.60;;;;;;;2.90;72.74;95344.66;5093534;28;20052;-64
2023/03/15 05:51:21;;;;;;;9.43;3.38;;;;;;;3.01;72.51;95340.94;5093893;28;20105;-65
2023/03/15 05:53:50;;;;;;;13.18;3.55;;;;;;;3.10;72.47;95340.69;5093785;28;20047;-65
2023/03/15 05:56:17;;;;;;;9.70;3.70;;;;;;;3.19;71.69;95349.09;5093721;28;20455;-64
2023/03/15 05:58:45;;;;;;;12.05;4.63;;;;;;;3.18;71.18;95350.81;5093636;28;20068;-64
2023/03/15 06:01:12;;;;;;;20.77;5.13;;;;;;;3.14;71.68;95352.66;5093311;28;20105;-65
2023/03/15 06:03:39;;;;;;;10.93;5.75;;;;;;;3.16;71.04;95350.00;5093511;28;20052;-68
2023/03/15 06:06:07;;;;;;;7.60;4.03;;;;;;;3.16;69.49;95357.75;5093626;28;20538;-64
2023/03/15 06:08:34;;;;;;;8.30;4.63;;;;;;;3.18;68.65;95362.88;5093551;28;20052;-64
2023/03/15 06:11:03;;;;;;;10.70;5.85;;;;;;;3.15;69.16;95366.41;5093498;28;20044;-64
2023/03/15 06:13:30;;;;;;;11.40;5.55;;;;;;;3.19;70.39;95360.25;5093445;28;20047;-67
2023/03/15 06:15:57;;;;;;;11.25;4.53;;;;;;;3.21;69.42;95365.38;5093434;28;20055;-68
2023/03/15 06:18:25;;;;;;;11.20;4.68;;;;;;;3.35;69.34;95367.59;5093427;28;20075;-63
2023/03/15 06:20:52;;;;;;;10.98;4.00;;;;;;;3.43;69.28;95378.53;5093422;28;20047;-65
2023/03/15 06:23:19;;;;;;;11.10;4.35;;;;;;;3.62;68.98;95378.03;5093320;28;20526;-64
2023/03/15 06:25:46;;;;;;;8.73;4.38;;;;;;;3.87;68.16;95378.16;5093388;28;20044;-66
2023/03/15 06:28:15;;;;;;;9.43;4.88;;;;;;;4.25;67.48;95383.03;5093325;28;20070;-66
2023/03/15 06:30:42;;;;;;;8.77;4.72;;;;;;;4.73;67.10;95372.03;5093153;28;20493;-66
2023/03/15 06:33:10;;;;;;;8.98;4.57;;;;;;;5.26;64.35;95372.81;5093250;28;20075;-63
2023/03/15 06:35:38;;;;;;;8.93;4.55;;;;;;;5.54;62.67;95372.69;5093311;28;20112;-64
2023/03/15 06:38:05;;;;;;;10.13;4.10;;;;;;;6.00;60.83;95369.28;5093180;28;20131;-67
2023/03/15 06:40:32;;;;;;;9.50;4.30;;;;;;;6.45;59.89;95379.69;5093179;28;20109;-62
2023/03/15 06:43:02;;;;;;;11.45;4.80;;;;;;;7.40;57.37;95382.69;5093149;28;20134;-65
2023/03/15 06:45:31;;;;;;;7.22;4.35;;;;;;;8.14;54.28;95391.56;5092990;28;20059;-64
2023/03/15 06:47:58;;;;;;;8.93;4.07;;;;;;;8.44;52.74;95388.41;5093188;28;20563;-65
2023/03/15 06:50:25;;;;;;;8.35;4.60;;;;;;;8.37;53.15;95394.81;5092929;28;20052;-64
2023/03/15 06:52:52;;;;;;;9.23;4.63;;;;;;;8.14;53.60;95399.38;5093046;28;20557;-67
2023/03/15 06:55:20;;;;;;;13.73;5.20;;;;;;;7.99;53.99;95398.31;5093088;28;20409;-63
2023/03/15 06:57:47;;;;;;;10.07;4.82;;;;;;;7.78;54.40;95397.53;5093052;28;20055;-67
2023/03/15 07:00:16;;;;;;;9.82;4.90;;;;;;;7.57;55.11;95397.56;5093033;28;20074;-66
2023/03/15 07:02:44;;;;;;;11.80;5.43;;;;;;;7.49;54.57;95387.50;5093035;28;20055;-65
2023/03/15 07:05:12;;;;;;;11.73;5.35;;;;;;;7.52;55.22;95381.31;5092974;28;20052;-63
2023/03/15 07:07:39;;;;;;;9.60;4.88;;;;;;;7.77;55.42;95375.84;5093006;28;20048;-63
2023/03/15 07:10:07;;;;;;;6.85;4.18;;;;;;;8.02;54.79;95377.34;5092862;28;20052;-64
2023/03/15 07:12:34;;;;;;;7.63;4.20;;;;;;;8.37;53.67;95376.56;5095173;28;20398;-64
2023/03/15 07:15:01;;;;;;;8.63;4.45;;;;;;;8.66;52.29;95368.28;5096837;28;20051;-64
2023/03/15 07:17:28;;;;;;;8.50;4.53;;;;;;;8.82;52.25;95371.00;5096892;28;20139;-65
2023/03/15 07:19:57;;;;;;;13.35;4.00;;;;;;;8.99;52.35;95364.94;5096892;28;20101;-66
2023/03/15 07:22:25;;;;;;;12.48;4.65;;;;;;;9.17;52.29;95365.78;5096687;28;20040;-65
2023/03/15 07:24:52;;;;;;;13.55;5.20;;;;;;;9.12;52.17;95364.31;5096629;28;20055;-61
2023/03/15 07:27:19;;;;;;;8.65;4.70;;;;;;;9.15;51.12;95365.00;5096738;28;20094;-64
2023/03/15 07:29:47;;;;;;;10.45;4.43;;;;;;;9.27;50.67;95355.69;5096560;28;20044;-63
2023/03/15 07:32:14;;;;;;;13.55;4.38;;;;;;;8.95;48.80;95353.84;5096601;28;20401;-63
2023/03/15 07:34:41;;;;;;;9.52;4.40;;;;;;;8.70;49.85;95349.81;5096416;28;20054;-63
2023/03/15 07:37:10;;;;;;;9.38;4.45;;;;;;;8.52;49.67;95351.53;5096432;28;20044;-63
2023/03/15 07:39:37;;;;;;;7.32;4.30;;;;;;;8.53;49.88;95348.03;5096374;28;20098;-65
2023/03/15 07:42:06;;;;;;;11.07;4.57;;;;;;;8.52;50.19;95351.53;5096387;28;20048;-65
2023/03/15 07:44:33;;;;;;;9.20;5.13;;;;;;;8.56;51.11;95353.13;5096133;28;20125;-63
2023/03/15 07:47:00;;;;;;;6.57;3.70;;;;;;;8.81;49.41;95336.25;5096265;28;20083;-65
2023/03/15 07:49:27;;;;;;;7.43;4.20;;;;;;;9.05;50.34;95350.72;5095911;28;20087;-65
2023/03/15 07:51:54;;;;;;;7.65;4.22;;;;;;;9.48;47.29;95343.28;5096090;28;20413;-65
2023/03/15 07:54:23;;;;;;;9.95;4.30;;;;;;;9.58;46.84;95332.38;5096130;28;20045;-64
2023/03/15 07:56:50;;;;;;;6.75;3.92;;;;;;;9.54;47.06;95331.69;5095854;28;20493;-65
2023/03/15 07:59:17;;;;;;;7.70;3.35;;;;;;;9.52;47.97;95335.31;5096179;28;20051;-63
2023/03/15 08:01:44;;;;;;;6.07;3.58;;;;;;;9.71;47.35;95328.19;5095992;28;20135;-63
2023/03/15 08:04:11;;;;;;;7.05;3.28;;;;;;;9.60;46.74;95330.50;5095879;28;20056;-65
2023/03/15 08:06:39;;;;;;;7.72;4.20;;;;;;;9.33;47.31;95331.91;5095818;28;20130;-64
2023/03/15 08:09:06;;;;;;;13.00;4.32;;;;;;;9.65;48.01;95328.50;5095903;28;20044;-66
2023/03/15 08:11:34;;;;;;;9.20;3.90;;;;;;;9.61;47.33;95327.81;5095749;28;20126;-67
2023/03/15 08:14:02;;;;;;;8.27;4.13;;;;;;;9.70;46.84;95323.88;5095797;28;20097;-67
2023/03/15 08:16:29;;;;;;;9.48;3.78;;;;;;;10.02;47.33;95307.38;5095648;28;20134;-65
2023/03/15 08:18:56;;;;;;;8.75;3.25;;;;;;;10.45;46.88;95311.97;5095604;28;20127;-65
2023/03/15 08:21:23;;;;;;;4.57;3.15;;;;;;;10.74;44.56;95306.00;5095699;28;20131;-65
2023/03/15 08:23:50;;;;;;;4.95;2.83;;;;;;;10.98;44.12;95303.72;5095056;28;20083;-64
2023/03/15 08:26:18;;;;;;;3.63;3.10;;;;;;;11.25;43.68;95307.38;5095707;28;20093;-65
2023/03/15 08:28:47;;;;;;;7.55;3.17;;;;;;;11.72;43.45;95308.03;5095580;28;20134;-64
2023/03/15 08:31:14;;;;;;;13.68;3.42;;;;;;;11.84;42.03;95306.41;5095351;28;20139;-67
2023/03/15 08:33:41;;;;;;;6.75;3.17;;;;;;;12.07;40.76;95298.88;5095270;28;20058;-65
2023/03/15 08:36:09;;;;;;;5.95;2.63;;;;;;;12.45;39.59;95294.75;5095316;28;20422;-64
2023/03/15 08:38:37;;;;;;;4.57;2.72;;;;;;;12.34;39.78;95292.81;5095207;28;20040;-63
2023/03/15 08:41:04;;;;;;;4.38;2.58;;;;;;;12.41;39.75;95276.69;5095138;28;20413;-64
2023/03/15 08:43:31;;;;;;;6.57;3.30;;;;;;;12.17;40.56;95286.06;5095125;28;20044;-63
2023/03/15 08:46:00;;;;;;;5.80;2.88;;;;;;;11.99;41.20;95282.78;5095137;28;20121;-64
2023/03/15 08:48:27;;;;;;;6.97;3.22;;;;;;;12.04;41.48;95277.25;5095034;28;20504;-66
2023/03/15 08:50:54;;;;;;;7.90;3.20;;;;;;;12.17;41.86;95272.09;5094866;28;20052;-64
2023/03/15 08:53:21;;;;;;;6.57;3.10;;;;;;;12.60;40.83;95265.81;5094978;28;20048;-66
2023/03/15 08:55:49;;;;;;;5.40;3.15;;;;;;;12.68;38.82;95262.69;5094892;28;20048;-66
2023/03/15 08:58:16;;;;;;;10.93;3.00;;;;;;;12.43;39.21;95259.06;5094877;28;20054;-66
2023/03/15 09:00:43;;;;;;;3.42;2.35;;;;;;;12.10;38.49;95263.81;5094765;28;20040;-66
2023/03/15 09:03:13;;;;;;;4.75;2.30;;;;;;;12.06;39.33;95262.25;5094768;28;20052;-64
2023/03/15 09:05:40;;;;;;;5.50;2.67;;;;;;;12.11;39.31;95261.09;5094694;28;20098;-63
2023/03/15 09:08:07;;;;;;;4.40;2.78;;;;;;;12.17;39.46;95267.72;5094638;28;20508;-67
2023/03/15 09:10:35;;;;;;;6.90;3.05;;;;;;;12.17;38.75;95264.22;5094616;28;20113;-63
2023/03/15 09:13:02;;;;;;;5.07;2.63;;;;;;;12.05;37.25;95257.97;5094626;28;20048;-63
2023/03/15 09:15:29;;;;;;;9.35;3.30;;;;;;;11.92;39.07;95255.31;5094616;28;20052;-63
2023/03/15 09:17:56;;;;;;;8.18;3.10;;;;;;;11.79;38.92;95256.06;5094563;28;20048;-63
2023/03/15 09:20:27;;;;;;;8.18;3.15;;;;;;;11.55;39.63;95259.31;5094366;28;20500;-63
2023/03/15 09:22:56;;;;;;;7.38;2.88;;;;;;;11.42;40.03;95263.63;5094417;28;20048;-64
2023/03/15 09:25:25;;;;;;;9.45;3.25;;;;;;;11.70;40.56;95259.28;5094319;28;20052;-66
2023/03/15 09:27:52;;;;;;;5.38;3.03;;;;;;;11.91;39.88;95257.06;5094375;28;20052;-63
2023/03/15 09:30:20;;;;;;;8.10;3.20;;;;;;;11.67;39.59;95254.22;5094216;28;20044;-64
2023/03/15 09:32:47;;;;;;;6.43;3.45;;;;;;;11.15;40.37;95259.13;5094181;28;20055;-64
2023/03/15 09:35:17;;;;;;;3.33;2.53;;;;;;;10.71;41.75;95246.00;5093422;28;20052;-64
2023/03/15 09:37:46;;;;;;;6.18;3.20;;;;;;;10.71;41.24;95239.03;5093995;28;20044;-63
2023/03/15 09:40:18;;;;;;;6.85;3.80;;;;;;;10.74;42.28;95232.75;5094084;28;20047;-64
2023/03/15 09:42:59;;;;;;;8.40;3.10;;;;;;;10.60;41.94;95230.97;5093933;28;20073;-65
2023/03/15 09:45:35;;;;;;;6.30;3.22;;;;;;;10.67;43.22;95231.44;5093942;28;20051;-63
2023/03/15 09:48:09;;;;;;;6.90;3.80;;;;;;;10.50;42.16;95235.88;5093804;28;20059;-66
2023/03/15 09:50:42;;;;;;;6.10;3.88;;;;;;;10.22;42.51;95233.09;5093700;28;20048;-62
2023/03/15 09:53:17;;;;;;;7.28;3.75;;;;;;;10.07;42.94;95232.19;5093806;28;20097;-64
2023/03/15 09:55:46;;;;;;;14.73;3.85;;;;;;;10.13;44.54;95228.38;5093721;28;20040;-64
2023/03/15 09:58:18;;;;;;;7.97;3.90;;;;;;;10.50;43.89;95230.66;5093820;28;20044;-63
2023/03/15 10:00:47;;;;;;;8.60;3.13;;;;;;;10.80;43.20;95235.00;5093624;28;20048;-63
2023/03/15 10:03:21;;;;;;;5.10;3.20;;;;;;;10.99;42.45;95241.78;5093613;28;20119;-64
2023/03/15 10:05:54;;;;;;;8.25;3.60;;;;;;;11.04;41.68;95244.94;5093543;28;20102;-63
2023/03/15 10:08:22;;;;;;;7.13;3.80;;;;;;;11.19;41.91;95252.78;5093589;28;20489;-64
2023/03/15 10:10:53;;;;;;;5.75;3.88;;;;;;;11.52;41.37;95240.31;5093640;28;20135;-64
2023/03/15 10:13:33;;;;;;;;;;;;;;;11.52;42.77;95229.84;5093942;28;20485;-63
2023/03/15 10:16:09;;;;;;;11.07;4.78;;;;;;;11.62;43.68;95228.34;5093339;28;20514;-63
2023/03/15 10:18:48;;;;;;;9.25;3.65;;;;;;;11.74;43.32;95217.06;5093359;28;20135;-64
2023/03/15 10:21:30;;;;;;;10.75;3.47;;;;;;;12.25;44.41;95217.38;5093320;28;20047;-63
2023/03/15 10:24:00;;;;;;;11.90;3.65;;;;;;;12.60;42.10;95213.34;5093280;28;20040;-64
2023/03/15 10:26:32;;;;;;;11.20;3.97;;;;;;;12.54;42.13;95212.00;5093229;28;20098;-62
2023/03/15 10:29:02;;;;;;;12.65;4.45;;;;;;;12.32;43.88;95212.59;5093306;28;20043;-63
2023/03/15 10:31:35;;;;;;;14.40;3.97;;;;;;;12.43;42.78;95209.25;5093246;28;20463;-64
2023/03/15 10:34:02;;;;;;;9.73;3.67;;;;;;;12.37;42.67;95211.31;5093363;28;20101;-64
2023/03/15 10:36:30;;;;;;;9.23;3.83;;;;;;;12.54;41.91;95201.50;5093286;28;20167;-63
2023/03/15 10:38:59;;;;;;;7.10;3.90;;;;;;;12.86;41.61;95208.13;5093148;28;20489;-64
2023/03/15 10:41:36;;;;;;;12.80;4.10;;;;;;;13.05;42.01;95204.22;5093214;28;20044;-64
2023/03/15 10:44:07;;;;;;;8.32;4.25;;;;;;;13.20;40.98;95197.06;5093304;28;20109;-63
2023/03/15 10:46:34;;;;;;;;;;;;;;;13.25;41.12;95193.16;5097778;28;20059;-63
2023/03/15 10:49:10;;;;;;;6.35;3.78;;;;;;;13.24;40.61;95191.50;5099766;28;19920;-64
2023/03/15 10:51:42;;;;;;;7.75;3.55;;;;;;;13.45;40.20;95195.34;5099844;28;20048;-63
2023/03/15 10:54:16;;;;;;;9.05;3.67;;;;;;;13.20;40.53;95195.28;5099823;28;20047;-63
2023/03/15 10:56:47;;;;;;;9.93;4.32;;;;;;;13.10;40.93;95195.06;5099829;28;20075;-64
2023/03/15 10:59:17;;;;;;;5.88;3.40;;;;;;;12.98;41.54;95196.78;5099716;28;20047;-63
2023/03/15 11:01:48;;;;;;;7.30;4.40;;;;;;;12.88;40.75;95186.06;5099686;28;20496;-62
2023/03/15 11:04:17;;;;;;;7.43;3.58;;;;;;;12.81;41.12;95179.56;5099886;28;20055;-64
2023/03/15 11:06:47;;;;;;;6.22;3.58;;;;;;;12.81;40.88;95171.72;5099713;28;20075;-64
2023/03/15 11:09:18;;;;;;;7.20;3.88;;;;;;;12.93;41.15;95172.66;5099597;28;20479;-64
2023/03/15 11:12:09;;;;;;;9.98;3.45;;;;;;;13.01;40.87;95159.81;5099581;28;20493;-65
2023/03/15 11:14:39;;;;;;;6.45;4.07;;;;;;;13.12;40.14;95160.84;5079903;28;20044;-64
2023/03/15 11:17:15;;;;;;;4.17;2.83;;;;;;;13.21;41.41;95159.34;5099647;28;20044;-64
2023/03/15 11:19:50;;;;;;;8.73;4.00;;;;;;;13.25;39.95;95169.53;5099515;28;20109;-63
2023/03/15 11:22:17;;;;;;;7.05;3.30;;;;;;;13.13;39.11;95154.66;5099577;28;20481;-64
2023/03/15 11:24:45;;;;;;;12.88;4.03;;;;;;;12.97;39.56;95144.38;5099554;28;20509;-63
2023/03/15 11:27:15;;;;;;;5.43;3.33;;;;;;;13.02;39.00;95145.75;5099549;28;20109;-63
2023/03/15 11:29:47;;;;;;;4.32;2.92;;;;;;;13.15;38.58;95144.88;5099601;28;20097;-63
2023/03/15 11:32:19;;;;;;;7.68;3.45;;;;;;;13.26;38.86;95142.34;5099411;28;20401;-64
2023/03/15 11:34:54;;;;;;;7.70;3.92;;;;;;;13.31;39.17;95143.81;5099376;28;20044;-63
2023/03/15 11:37:25;;;;;;;7.60;2.90;;;;;;;13.18;38.66;95139.41;5099297;28;20154;-64
2023/03/15 11:40:00;;;;;;;8.82;3.63;;;;;;;13.33;39.84;95142.75;5099441;28;20054;-64
2023/03/15 11:42:32;;;;;;;10.00;3.08;;;;;;;13.47;39.52;95131.25;5099519;28;20511;-64
2023/03/15 11:45:05;;;;;;;11.77;3.35;;;;;;;13.70;39.41;95131.38;5099312;28;20056;-64
2023/03/15 11:47:47;;;;;;;8.57;3.60;;;;;;;13.84;37.65;95126.91;5099283;28;20048;-64